Time;durP1;ratioP1;P1;durP2;ratioP2;P2;SDS_P1;SDS_P2;PMS_P1;PMS_P2;Temp;Humidity;BMP_temperature;BMP_pressure;BME280_temperature;BME280_humidity;BME280_pressure;Samples;Min_cycle;Max_cycle;Signal;HPM_P1;HPM_P2
2021/12/27 00:00:11;;;;;;;6.25;5.65;;;;;;;;;;5013597;28;20585;-50
2021/12/27 00:02:38;;;;;;;6.60;4.80;;;;;;;;;;5014349;28;20226;-49
2021/12/27 00:05:04;;;;;;;7.55;5.93;;;;;;;;;;5014035;28;20563;-49
2021/12/27 00:07:30;;;;;;;6.28;5.68;;;;;;;;;;5013766;28;20223;-49
2021/12/27 00:09:56;;;;;;;7.68;5.57;;;;;;;;;;5013900;28;20164;-50
2021/12/27 00:12:22;;;;;;;6.87;5.27;;;;;;;;;;5014101;28;20195;-50
2021/12/27 00:14:48;;;;;;;6.10;5.50;;;;;;;;;;5013905;28;20458;-49
2021/12/27 00:17:14;;;;;;;6.47;5.30;;;;;;;;;;5013715;28;20494;-49
2021/12/27 00:19:40;;;;;;;5.13;4.03;;;;;;;;;;5013805;28;20403;-48
2021/12/27 00:22:06;;;;;;;5.78;5.28;;;;;;;;;;5013597;28;20400;-49
2021/12/27 00:24:32;;;;;;;7.63;5.20;;;;;;;;;;5013762;28;20319;-49
2021/12/27 00:26:58;;;;;;;7.80;5.87;;;;;;;;;;5013339;28;20431;-48
2021/12/27 00:29:24;;;;;;;6.10;5.10;;;;;;;;;;5013742;28;20815;-48
2021/12/27 00:31:50;;;;;;;4.97;4.50;;;;;;;;;;5013548;28;20494;-50
2021/12/27 00:34:16;;;;;;;6.32;5.20;;;;;;;;;;5013403;28;20963;-49
2021/12/27 00:36:42;;;;;;;7.77;4.73;;;;;;;;;;5012995;28;20173;-50
2021/12/27 00:39:08;;;;;;;5.88;5.38;;;;;;;;;;5013371;28;20495;-49
2021/12/27 00:41:34;;;;;;;5.50;5.00;;;;;;;;;;5013203;28;20247;-49
2021/12/27 00:44:00;;;;;;;6.37;4.77;;;;;;;;;;5013540;28;20206;-48
2021/12/27 00:46:26;;;;;;;6.03;5.07;;;;;;;;;;5013359;28;20399;-49
2021/12/27 00:48:52;;;;;;;5.43;4.77;;;;;;;;;;5013619;28;20443;-48
2021/12/27 00:51:18;;;;;;;5.10;4.60;;;;;;;;;;5013366;28;20809;-49
2021/12/27 00:53:44;;;;;;;5.20;4.70;;;;;;;;;;5013148;28;20455;-48
2021/12/27 00:56:10;;;;;;;6.37;4.93;;;;;;;;;;5013266;28;20403;-48
2021/12/27 00:58:36;;;;;;;6.10;4.80;;;;;;;;;;5012939;28;20930;-49
2021/12/27 01:01:02;;;;;;;6.43;5.20;;;;;;;;;;5013441;28;20399;-48
2021/12/27 01:03:28;;;;;;;8.13;6.35;;;;;;;;;;5013107;28;20407;-49
2021/12/27 01:05:54;;;;;;;6.63;5.25;;;;;;;;;;5013396;28;20185;-49
2021/12/27 01:08:20;;;;;;;5.93;5.20;;;;;;;;;;5012688;28;20192;-50
2021/12/27 01:13:23;;;;;;;8.05;5.50;;;;;;;;;;5012807;28;20176;-49
2021/12/27 01:16:02;;;;;;;7.00;6.03;;;;;;;;;;5013094;28;20171;-48
2021/12/27 01:18:28;;;;;;;7.32;5.03;;;;;;;;;;5012863;28;20707;-48
2021/12/27 01:20:54;;;;;;;6.65;4.75;;;;;;;;;;5013509;28;20592;-48
2021/12/27 01:23:20;;;;;;;6.25;5.63;;;;;;;;;;5012777;28;20196;-48
2021/12/27 01:25:46;;;;;;;6.97;5.63;;;;;;;;;;5012973;28;20206;-48
2021/12/27 01:28:12;;;;;;;5.77;5.17;;;;;;;;;;5012496;28;20195;-49
2021/12/27 01:30:46;;;;;;;6.30;5.63;;;;;;;;;;5012934;28;20431;-49
2021/12/27 01:33:13;;;;;;;7.22;5.18;;;;;;;;;;5012385;28;20403;-49
2021/12/27 01:35:39;;;;;;;12.82;5.80;;;;;;;;;;5012886;28;20215;-48
2021/12/27 01:38:05;;;;;;;7.77;5.90;;;;;;;;;;5012369;28;20192;-48
2021/12/27 01:40:31;;;;;;;5.90;5.03;;;;;;;;;;5012510;28;20423;-48
2021/12/27 01:43:01;;;;;;;7.03;6.20;;;;;;;;;;5012919;28;20406;-48
2021/12/27 01:45:27;;;;;;;6.97;5.47;;;;;;;;;;5012534;28;20179;-49
2021/12/27 01:47:53;;;;;;;6.55;5.40;;;;;;;;;;5012237;28;20238;-49
2021/12/27 01:50:19;;;;;;;7.85;5.90;;;;;;;;;;5012781;28;20247;-48
2021/12/27 01:52:45;;;;;;;6.07;4.80;;;;;;;;;;5012374;28;20176;-49
2021/12/27 01:55:12;;;;;;;6.40;5.75;;;;;;;;;;5014818;28;20211;-49
2021/12/27 01:57:38;;;;;;;6.97;5.70;;;;;;;;;;5016150;28;20664;-49
2021/12/27 02:00:04;;;;;;;7.40;5.80;;;;;;;;;;5016459;28;20243;-48
2021/12/27 02:02:31;;;;;;;8.20;5.63;;;;;;;;;;5015669;28;20398;-48
2021/12/27 02:04:57;;;;;;;6.03;5.40;;;;;;;;;;5015619;28;20196;-48
2021/12/27 02:07:23;;;;;;;6.40;5.10;;;;;;;;;;5015696;28;20208;-48
2021/12/27 02:10:01;;;;;;;6.20;5.60;;;;;;;;;;5016555;28;20171;-48
2021/12/27 02:12:27;;;;;;;5.93;5.32;;;;;;;;;;5016083;28;20172;-48
2021/12/27 02:14:53;;;;;;;7.43;5.80;;;;;;;;;;5016107;28;20219;-48
2021/12/27 02:17:19;;;;;;;5.53;5.03;;;;;;;;;;4998071;28;20988;-48
2021/12/27 02:19:52;;;;;;;6.20;5.32;;;;;;;;;;5016398;28;20219;-48
2021/12/27 02:22:18;;;;;;;6.55;5.55;;;;;;;;;;5015927;28;20247;-49
2021/12/27 02:24:44;;;;;;;6.55;5.40;;;;;;;;;;5016095;28;20173;-48
2021/12/27 02:27:15;;;;;;;6.47;5.80;;;;;;;;;;5015838;28;20694;-48
2021/12/27 02:29:41;;;;;;;6.40;5.60;;;;;;;;;;5015896;28;20480;-48
2021/12/27 02:32:08;;;;;;;5.10;4.57;;;;;;;;;;5015888;28;20207;-49
2021/12/27 02:34:34;;;;;;;5.45;4.95;;;;;;;;;;5015838;28;20200;-49
2021/12/27 02:37:00;;;;;;;7.63;5.38;;;;;;;;;;5015398;28;20195;-50
2021/12/27 02:39:29;;;;;;;6.88;4.93;;;;;;;;;;5015619;28;20181;-49
2021/12/27 02:41:55;;;;;;;5.80;5.15;;;;;;;;;;5015818;28;20633;-48
2021/12/27 02:44:21;;;;;;;5.63;5.05;;;;;;;;;;5015597;28;20532;-49
2021/12/27 02:46:48;;;;;;;7.17;5.80;;;;;;;;;;5015486;28;20184;-49
2021/12/27 02:49:14;;;;;;;5.60;4.47;;;;;;;;;;5015605;28;20417;-48
2021/12/27 02:51:40;;;;;;;7.67;5.73;;;;;;;;;;5015536;28;20168;-49
2021/12/27 02:54:06;;;;;;;7.13;5.22;;;;;;;;;;5015036;28;20447;-48
2021/12/27 02:56:33;;;;;;;6.30;5.63;;;;;;;;;;5014991;28;20627;-49
2021/12/27 02:58:59;;;;;;;5.10;4.40;;;;;;;;;;5015203;28;20807;-49
2021/12/27 03:01:26;;;;;;;6.97;4.95;;;;;;;;;;5015245;28;20592;-49
2021/12/27 03:03:53;;;;;;;6.90;5.22;;;;;;;;;;5015282;28;20164;-48
2021/12/27 03:06:19;;;;;;;5.45;4.95;;;;;;;;;;5014737;28;20251;-48
2021/12/27 03:08:47;;;;;;;5.70;5.20;;;;;;;;;;5014897;28;20246;-49
2021/12/27 03:11:13;;;;;;;6.70;6.10;;;;;;;;;;5015297;28;20253;-49
2021/12/27 03:13:40;;;;;;;8.52;5.43;;;;;;;;;;5015176;28;20192;-49
2021/12/27 03:16:08;;;;;;;6.43;5.72;;;;;;;;;;5015042;28;20503;-49
2021/12/27 03:18:35;;;;;;;6.10;5.35;;;;;;;;;;5014738;28;20180;-51
2021/12/27 03:21:01;;;;;;;6.70;5.80;;;;;;;;;;5014951;28;20171;-48
2021/12/27 03:23:27;;;;;;;5.95;5.45;;;;;;;;;;5015111;28;20172;-49
2021/12/27 03:25:53;;;;;;;8.20;5.70;;;;;;;;;;5014823;28;20165;-49
2021/12/27 03:28:20;;;;;;;7.40;6.00;;;;;;;;;;5014597;28;20420;-49
2021/12/27 03:30:46;;;;;;;6.50;5.35;;;;;;;;;;5015051;28;20172;-48
2021/12/27 03:33:12;;;;;;;5.50;5.00;;;;;;;;;;5014764;28;20173;-49
2021/12/27 03:35:41;;;;;;;6.57;5.88;;;;;;;;;;5014669;28;20160;-49
2021/12/27 03:38:11;;;;;;;5.88;5.38;;;;;;;;;;5014595;28;20180;-48
2021/12/27 03:40:37;;;;;;;6.80;5.60;;;;;;;;;;5014770;28;20186;-48
2021/12/27 03:43:04;;;;;;;8.43;6.82;;;;;;;;;;5014683;28;20179;-48
2021/12/27 03:45:35;;;;;;;6.90;6.03;;;;;;;;;;5014862;28;20188;-48
2021/12/27 03:48:02;;;;;;;6.90;6.20;;;;;;;;;;5014367;28;20551;-48
2021/12/27 03:50:28;;;;;;;8.73;6.07;;;;;;;;;;5014520;28;20168;-49
2021/12/27 03:52:55;;;;;;;6.20;5.10;;;;;;;;;;5014617;28;20176;-48
2021/12/27 03:55:21;;;;;;;7.30;6.60;;;;;;;;;;5014623;28;20328;-49
2021/12/27 03:57:53;;;;;;;6.20;5.50;;;;;;;;;;5014286;28;20663;-48
2021/12/27 04:02:49;;;;;;;6.40;5.75;;;;;;;;;;5014471;28;20187;-48
2021/12/27 04:05:15;;;;;;;7.00;6.30;;;;;;;;;;5014254;28;20558;-48
2021/12/27 04:07:43;;;;;;;8.43;6.82;;;;;;;;;;5014067;28;20246;-48
2021/12/27 04:10:12;;;;;;;9.55;6.53;;;;;;;;;;5014300;28;20538;-49
2021/12/27 04:12:42;;;;;;;6.90;6.05;;;;;;;;;;5014200;28;20584;-49
2021/12/27 04:15:10;;;;;;;8.05;6.30;;;;;;;;;;5013747;28;20200;-49
2021/12/27 04:17:36;;;;;;;6.50;5.90;;;;;;;;;;5013040;28;20411;-49
2021/12/27 04:20:03;;;;;;;8.40;6.25;;;;;;;;;;5013903;28;20211;-50
2021/12/27 04:22:33;;;;;;;11.93;5.75;;;;;;;;;;5013886;28;20156;-49
2021/12/27 04:24:59;;;;;;;7.18;5.95;;;;;;;;;;5013923;28;20196;-49
2021/12/27 04:27:25;;;;;;;7.07;5.45;;;;;;;;;;5013422;28;20200;-49
2021/12/27 04:29:51;;;;;;;5.90;5.30;;;;;;;;;;5013601;28;20238;-49
2021/12/27 04:32:17;;;;;;;7.40;5.80;;;;;;;;;;5013781;28;20439;-49
2021/12/27 04:34:43;;;;;;;8.00;6.47;;;;;;;;;;5013525;28;20457;-48
2021/12/27 04:37:11;;;;;;;6.10;5.40;;;;;;;;;;5013370;28;20427;-48
2021/12/27 04:39:40;;;;;;;7.35;5.53;;;;;;;;;;5013593;28;20786;-49
2021/12/27 04:42:09;;;;;;;5.78;5.13;;;;;;;;;;5013842;28;20191;-49
2021/12/27 04:44:35;;;;;;;6.00;5.40;;;;;;;;;;5013407;28;20179;-49
2021/12/27 04:47:01;;;;;;;6.53;5.63;;;;;;;;;;5013177;28;20192;-49
2021/12/27 04:49:27;;;;;;;6.70;5.20;;;;;;;;;;5013279;28;20172;-49
2021/12/27 04:51:53;;;;;;;6.10;5.43;;;;;;;;;;5013543;28;20643;-49
2021/12/27 04:54:19;;;;;;;5.50;5.00;;;;;;;;;;5013173;28;20541;-48
2021/12/27 04:56:46;;;;;;;6.97;6.20;;;;;;;;;;5013375;28;20461;-49
2021/12/27 04:59:12;;;;;;;6.53;5.93;;;;;;;;;;5013407;28;20930;-48
2021/12/27 05:01:39;;;;;;;5.07;4.60;;;;;;;;;;5013317;28;20187;-48
2021/12/27 05:04:05;;;;;;;7.18;6.30;;;;;;;;;;5013046;28;20744;-48
2021/12/27 05:06:31;;;;;;;5.30;4.80;;;;;;;;;;5013120;28;20617;-48
2021/12/27 05:08:58;;;;;;;6.75;5.97;;;;;;;;;;5013185;28;20206;-49
2021/12/27 05:11:24;;;;;;;7.25;6.20;;;;;;;;;;5012890;28;20655;-48
2021/12/27 05:13:50;;;;;;;6.93;5.30;;;;;;;;;;5013127;28;20192;-50
2021/12/27 05:16:16;;;;;;;5.70;5.17;;;;;;;;;;5012940;28;20567;-50
2021/12/27 05:18:42;;;;;;;6.33;5.63;;;;;;;;;;5013090;28;20454;-48
2021/12/27 05:21:08;;;;;;;6.07;5.30;;;;;;;;;;5012916;28;20481;-49
2021/12/27 05:23:34;;;;;;;5.77;5.27;;;;;;;;;;5013113;28;20766;-49
2021/12/27 05:26:00;;;;;;;6.45;5.80;;;;;;;;;;5012785;28;20454;-49
2021/12/27 05:28:26;;;;;;;7.80;6.30;;;;;;;;;;5012324;28;20672;-48
2021/12/27 05:30:52;;;;;;;6.88;5.63;;;;;;;;;;5012880;28;20407;-49
2021/12/27 05:36:22;;;;;;;8.32;6.15;;;;;;;;;;5013200;28;20303;-48
2021/12/27 05:38:48;;;;;;;5.47;4.83;;;;;;;;;;5012450;28;20228;-48
2021/12/27 05:41:14;;;;;;;8.40;6.28;;;;;;;;;;5012622;28;20430;-49
2021/12/27 05:43:40;;;;;;;5.50;5.00;;;;;;;;;;5012797;28;20169;-50
2021/12/27 05:46:06;;;;;;;7.43;6.13;;;;;;;;;;5012818;28;20453;-50
2021/12/27 05:48:32;;;;;;;6.35;5.63;;;;;;;;;;5012445;28;20506;-49
2021/12/27 05:50:58;;;;;;;8.65;6.45;;;;;;;;;;4994959;28;20602;-49
2021/12/27 05:53:24;;;;;;;5.73;5.13;;;;;;;;;;5012344;28;20195;-48
2021/12/27 05:55:51;;;;;;;9.25;6.07;;;;;;;;;;5012464;28;20449;-49
2021/12/27 05:58:17;;;;;;;5.95;5.35;;;;;;;;;;5012461;28;20266;-49
2021/12/27 06:00:43;;;;;;;7.10;5.20;;;;;;;;;;5012655;28;20550;-49
2021/12/27 06:03:09;;;;;;;4.68;4.28;;;;;;;;;;5014246;28;20199;-49
2021/12/27 06:05:35;;;;;;;5.87;5.23;;;;;;;;;;5013944;28;20173;-49
2021/12/27 06:08:01;;;;;;;6.90;6.05;;;;;;;;;;5013145;28;20425;-51
2021/12/27 06:10:27;;;;;;;7.88;5.55;;;;;;;;;;5013414;28;20264;-48
2021/12/27 06:12:53;;;;;;;5.47;4.70;;;;;;;;;;5013592;28;20164;-48
2021/12/27 06:15:19;;;;;;;8.48;6.30;;;;;;;;;;5013608;28;20250;-49
2021/12/27 06:17:45;;;;;;;5.85;5.32;;;;;;;;;;5013661;28;20184;-51
2021/12/27 06:20:15;;;;;;;7.70;5.30;;;;;;;;;;5013731;28;20636;-50
2021/12/27 06:22:43;;;;;;;5.10;4.60;;;;;;;;;;5014358;28;20771;-51
2021/12/27 06:25:09;;;;;;;7.97;5.93;;;;;;;;;;5013675;28;20173;-50
2021/12/27 06:27:35;;;;;;;7.63;5.78;;;;;;;;;;5012712;28;20212;-49
2021/12/27 06:30:03;;;;;;;7.47;6.40;;;;;;;;;;5013596;28;20172;-50
2021/12/27 06:32:29;;;;;;;7.50;6.05;;;;;;;;;;5013713;28;20179;-50
2021/12/27 06:34:55;;;;;;;6.17;5.37;;;;;;;;;;5013980;28;20200;-49
2021/12/27 06:37:21;;;;;;;7.20;5.90;;;;;;;;;;5013669;28;20423;-50
2021/12/27 06:39:47;;;;;;;6.75;5.70;;;;;;;;;;5013730;28;20443;-51
2021/12/27 06:42:13;;;;;;;8.05;5.40;;;;;;;;;;5016970;28;20176;-49
2021/12/27 06:44:39;;;;;;;6.65;5.10;;;;;;;;;;5017653;28;20573;-50
2021/12/27 06:47:05;;;;;;;5.70;5.20;;;;;;;;;;5017314;28;20189;-50
2021/12/27 06:49:36;;;;;;;6.03;5.40;;;;;;;;;;5017212;28;20408;-51
2021/12/27 06:52:03;;;;;;;7.07;5.95;;;;;;;;;;5017311;28;20399;-49
2021/12/27 06:54:28;;;;;;;7.13;5.82;;;;;;;;;;5016940;28;20311;-49
2021/12/27 06:56:57;;;;;;;7.00;5.33;;;;;;;;;;5016643;28;20238;-49
2021/12/27 06:59:23;;;;;;;7.93;6.07;;;;;;;;;;5016624;28;20399;-49
2021/12/27 07:01:49;;;;;;;7.47;6.03;;;;;;;;;;5016641;28;20168;-51
2021/12/27 07:04:15;;;;;;;8.90;5.67;;;;;;;;;;5016601;28;20173;-51
2021/12/27 07:06:41;;;;;;;6.50;5.77;;;;;;;;;;5016032;28;20769;-50
2021/12/27 07:09:07;;;;;;;6.20;5.60;;;;;;;;;;5016529;28;20399;-51
2021/12/27 07:11:33;;;;;;;8.87;6.00;;;;;;;;;;5016160;28;20745;-49
2021/12/27 07:13:59;;;;;;;7.95;6.32;;;;;;;;;;5016908;28;20452;-50
2021/12/27 07:16:26;;;;;;;8.90;6.00;;;;;;;;;;5015467;28;20588;-50
2021/12/27 07:18:52;;;;;;;8.32;6.80;;;;;;;;;;5014999;28;20430;-50
2021/12/27 07:21:18;;;;;;;9.27;5.70;;;;;;;;;;5016589;28;20232;-50
2021/12/27 07:23:44;;;;;;;9.80;7.17;;;;;;;;;;5016195;28;20414;-50
2021/12/27 07:26:11;;;;;;;7.20;5.50;;;;;;;;;;5015982;28;20407;-51
2021/12/27 07:28:37;;;;;;;9.60;5.85;;;;;;;;;;5015829;28;20210;-52
2021/12/27 07:31:03;;;;;;;8.30;7.50;;;;;;;;;;5015791;28;20644;-50
2021/12/27 07:33:29;;;;;;;7.95;6.43;;;;;;;;;;5016087;28;20907;-52
2021/12/27 07:35:55;;;;;;;7.00;6.30;;;;;;;;;;5014938;28;20233;-50
2021/12/27 07:38:22;;;;;;;7.22;6.07;;;;;;;;;;5013826;28;20450;-50
2021/12/27 07:40:48;;;;;;;8.73;6.90;;;;;;;;;;5016020;28;20180;-51
2021/12/27 07:43:14;;;;;;;11.63;7.13;;;;;;;;;;5015592;28;20169;-49
2021/12/27 07:45:40;;;;;;;7.53;6.13;;;;;;;;;;5014199;28;20438;-49
2021/12/27 07:48:07;;;;;;;7.70;6.20;;;;;;;;;;5013893;28;20423;-49
2021/12/27 07:50:37;;;;;;;7.70;6.00;;;;;;;;;;5014152;28;20408;-49
2021/12/27 07:53:05;;;;;;;7.43;5.78;;;;;;;;;;5013058;28;20172;-48
2021/12/27 07:55:31;;;;;;;8.07;6.07;;;;;;;;;;4996460;28;20208;-49
2021/12/27 07:57:57;;;;;;;7.25;5.93;;;;;;;;;;5014103;28;20197;-49
2021/12/27 08:00:24;;;;;;;7.30;6.10;;;;;;;;;;5014041;28;20218;-49
2021/12/27 08:02:52;;;;;;;9.27;6.72;;;;;;;;;;5013824;28;20164;-49
2021/12/27 08:05:18;;;;;;;6.90;6.20;;;;;;;;;;5013790;28;20175;-49
2021/12/27 08:07:44;;;;;;;10.15;7.03;;;;;;;;;;5013561;28;20188;-49
2021/12/27 08:10:11;;;;;;;8.00;6.43;;;;;;;;;;5013800;28;20647;-48
2021/12/27 08:12:38;;;;;;;8.07;5.90;;;;;;;;;;5013418;28;20431;-51
2021/12/27 08:15:05;;;;;;;6.00;5.40;;;;;;;;;;5013490;28;20699;-49
2021/12/27 08:17:31;;;;;;;10.68;6.53;;;;;;;;;;5013228;28;20667;-48
2021/12/27 08:19:57;;;;;;;8.77;6.03;;;;;;;;;;5013704;28;20283;-49
2021/12/27 08:22:23;;;;;;;6.00;5.40;;;;;;;;;;5013665;28;20482;-48
2021/12/27 08:24:49;;;;;;;8.33;6.10;;;;;;;;;;5013552;28;20494;-48
2021/12/27 08:27:15;;;;;;;6.95;5.93;;;;;;;;;;5013368;28;20887;-49
2021/12/27 08:29:41;;;;;;;6.03;5.43;;;;;;;;;;5013224;28;20177;-49
2021/12/27 08:32:07;;;;;;;7.07;5.90;;;;;;;;;;5013515;28;20169;-49
2021/12/27 08:34:33;;;;;;;6.60;5.90;;;;;;;;;;5013409;28;20534;-48
2021/12/27 08:36:59;;;;;;;6.63;5.93;;;;;;;;;;5013516;28;20191;-49
2021/12/27 08:39:25;;;;;;;5.22;4.72;;;;;;;;;;5013301;28;20191;-49
2021/12/27 08:41:52;;;;;;;8.70;5.73;;;;;;;;;;5013338;28;20632;-49
2021/12/27 08:44:18;;;;;;;6.15;5.15;;;;;;;;;;5013056;28;20418;-49
2021/12/27 08:46:44;;;;;;;5.33;4.70;;;;;;;;;;5012806;28;20173;-49
2021/12/27 08:49:11;;;;;;;5.30;4.63;;;;;;;;;;5012874;28;20408;-49
2021/12/27 08:51:37;;;;;;;4.53;4.13;;;;;;;;;;5013558;28;20803;-49
2021/12/27 08:54:04;;;;;;;5.73;4.63;;;;;;;;;;5012693;28;20460;-49
2021/12/27 08:56:30;;;;;;;5.30;4.80;;;;;;;;;;4994738;28;20962;-51
2021/12/27 08:58:56;;;;;;;5.50;4.60;;;;;;;;;;5012704;28;20405;-49
2021/12/27 09:01:23;;;;;;;4.77;4.37;;;;;;;;;;5012755;28;20463;-49
2021/12/27 09:03:49;;;;;;;6.30;4.50;;;;;;;;;;5012380;28;20419;-49
2021/12/27 09:06:15;;;;;;;4.87;4.37;;;;;;;;;;5012721;28;20416;-49
2021/12/27 09:08:42;;;;;;;6.23;5.00;;;;;;;;;;5012459;28;20442;-49
2021/12/27 09:11:08;;;;;;;5.67;5.10;;;;;;;;;;5013283;28;20480;-49
2021/12/27 09:13:36;;;;;;;6.90;4.97;;;;;;;;;;5012557;28;20404;-49
2021/12/27 09:16:03;;;;;;;5.87;5.27;;;;;;;;;;5012524;28;20432;-49
2021/12/27 09:18:31;;;;;;;6.57;4.83;;;;;;;;;;5012343;28;20927;-49
2021/12/27 09:21:00;;;;;;;9.30;5.10;;;;;;;;;;5012615;28;20404;-49
2021/12/27 09:23:26;;;;;;;5.80;4.63;;;;;;;;;;5012419;28;20780;-49
2021/12/27 09:25:52;;;;;;;5.10;4.50;;;;;;;;;;5012625;28;20401;-49
2021/12/27 09:28:18;;;;;;;10.20;4.27;;;;;;;;;;5012732;28;20442;-49
2021/12/27 09:30:45;;;;;;;5.90;4.57;;;;;;;;;;5012265;28;20402;-49
2021/12/27 09:33:11;;;;;;;4.97;4.30;;;;;;;;;;5012293;28;20412;-49
2021/12/27 09:35:37;;;;;;;4.50;4.03;;;;;;;;;;5012515;28;20479;-49
2021/12/27 09:38:04;;;;;;;6.17;4.40;;;;;;;;;;5012019;28;20935;-49
2021/12/27 09:40:30;;;;;;;4.30;3.90;;;;;;;;;;5011992;28;20460;-49
2021/12/27 09:42:56;;;;;;;6.63;4.17;;;;;;;;;;5012256;28;20462;-49
2021/12/27 09:45:23;;;;;;;4.20;3.80;;;;;;;;;;5012129;28;20812;-49
2021/12/27 09:47:51;;;;;;;5.13;3.70;;;;;;;;;;5011926;28;20843;-49
2021/12/27 09:50:40;;;;;;;4.80;3.87;;;;;;;;;;5012153;28;20407;-49
2021/12/27 09:53:06;;;;;;;4.43;3.90;;;;;;;;;;5004528;28;20432;-51
2021/12/27 09:55:32;;;;;;;7.00;3.27;;;;;;;;;;5011920;28;20461;-49
2021/12/27 09:57:59;;;;;;;3.17;2.87;;;;;;;;;;5011723;28;20874;-51
2021/12/27 10:00:26;;;;;;;4.00;3.40;;;;;;;;;;5012210;28;20446;-49
2021/12/27 10:02:53;;;;;;;3.30;2.90;;;;;;;;;;5012116;28;20413;-50
2021/12/27 10:05:20;;;;;;;5.83;3.43;;;;;;;;;;5012294;28;20431;-51
2021/12/27 10:07:46;;;;;;;3.40;3.10;;;;;;;;;;5011514;28;20462;-50
2021/12/27 10:10:13;;;;;;;3.50;3.17;;;;;;;;;;5012084;28;20907;-50
2021/12/27 10:12:39;;;;;;;3.23;2.90;;;;;;;;;;5012199;28;20859;-51
2021/12/27 10:15:08;;;;;;;3.60;3.00;;;;;;;;;;5012571;28;20990;-49
2021/12/27 10:17:36;;;;;;;4.13;2.90;;;;;;;;;;5015556;28;20452;-49
2021/12/27 10:20:21;;;;;;;3.43;3.03;;;;;;;;;;5015876;28;20399;-49
2021/12/27 10:22:50;;;;;;;3.63;3.33;;;;;;;;;;5015630;28;20411;-50
2021/12/27 10:25:20;;;;;;;4.17;3.77;;;;;;;;;;5015722;28;20490;-50
2021/12/27 10:27:50;;;;;;;5.63;3.97;;;;;;;;;;5015326;28;20423;-51
2021/12/27 10:30:19;;;;;;;4.30;3.10;;;;;;;;;;5015631;28;20411;-49
2021/12/27 10:32:45;;;;;;;4.30;3.33;;;;;;;;;;5015208;28;20442;-50
2021/12/27 10:35:12;;;;;;;3.50;3.20;;;;;;;;;;5015347;28;20450;-51
2021/12/27 10:37:38;;;;;;;14.27;8.20;;;;;;;;;;5014822;28;20466;-49
2021/12/27 10:40:04;;;;;;;5.53;4.70;;;;;;;;;;5015133;28;20840;-51
2021/12/27 10:42:39;;;;;;;3.67;3.37;;;;;;;;;;5015145;28;20409;-51
2021/12/27 10:45:11;;;;;;;4.40;3.30;;;;;;;;;;5015130;28;20395;-52
2021/12/27 10:47:42;;;;;;;3.40;3.10;;;;;;;;;;5014824;28;20425;-50
2021/12/27 10:50:09;;;;;;;4.30;3.10;;;;;;;;;;5015061;28;20534;-49
2021/12/27 10:52:46;;;;;;;4.67;3.10;;;;;;;;;;5014894;28;20410;-51
2021/12/27 10:55:16;;;;;;;3.30;3.00;;;;;;;;;;5013476;28;20981;-49
2021/12/27 10:57:43;;;;;;;4.70;3.90;;;;;;;;;;5014823;28;21191;-49
2021/12/27 11:00:14;;;;;;;3.63;3.17;;;;;;;;;;5014685;28;20395;-50
2021/12/27 11:02:40;;;;;;;3.40;2.77;;;;;;;;;;5014616;28;20411;-50
2021/12/27 11:05:26;;;;;;;3.67;3.33;;;;;;;;;;5015046;28;20418;-51
2021/12/27 11:07:53;;;;;;;3.20;2.90;;;;;;;;;;5014393;28;20425;-50
2021/12/27 11:10:20;;;;;;;3.17;2.90;;;;;;;;;;5015125;28;20497;-50
2021/12/27 11:12:47;;;;;;;3.33;3.03;;;;;;;;;;5015199;28;20485;-50
2021/12/27 11:15:14;;;;;;;3.03;2.73;;;;;;;;;;5015125;28;20533;-50
2021/12/27 11:17:41;;;;;;;3.10;2.80;;;;;;;;;;5014703;28;20430;-50
2021/12/27 11:20:08;;;;;;;2.90;2.70;;;;;;;;;;5014882;28;20400;-49
2021/12/27 11:22:38;;;;;;;3.03;2.70;;;;;;;;;;5014679;28;20432;-49
2021/12/27 11:25:06;;;;;;;2.77;2.57;;;;;;;;;;5014656;28;20415;-51
2021/12/27 11:27:37;;;;;;;2.60;2.40;;;;;;;;;;5014102;28;20425;-51
2021/12/27 11:30:06;;;;;;;3.83;3.40;;;;;;;;;;5014628;28;20437;-50
2021/12/27 11:32:32;;;;;;;2.30;2.20;;;;;;;;;;5014980;28;20451;-50
2021/12/27 11:34:59;;;;;;;3.53;2.33;;;;;;;;;;5014349;28;20457;-51
2021/12/27 11:37:34;;;;;;;2.90;2.60;;;;;;;;;;5013984;28;20858;-51
2021/12/27 11:40:07;;;;;;;3.47;3.10;;;;;;;;;;5014301;28;20469;-49
2021/12/27 11:42:53;;;;;;;3.07;2.83;;;;;;;;;;5014355;28;20437;-49
2021/12/27 11:45:37;;;;;;;3.00;2.80;;;;;;;;;;5014229;28;20439;-51
2021/12/27 11:48:07;;;;;;;2.60;2.40;;;;;;;;;;5013813;28;20427;-51
2021/12/27 11:50:33;;;;;;;3.10;2.90;;;;;;;;;;5013781;28;20766;-49
2021/12/27 11:53:06;;;;;;;2.77;2.57;;;;;;;;;;5013947;28;20406;-49
2021/12/27 11:55:39;;;;;;;2.20;2.00;;;;;;;;;;5013749;28;20597;-49
2021/12/27 11:58:05;;;;;;;2.70;2.50;;;;;;;;;;5013551;28;20450;-50
2021/12/27 12:00:32;;;;;;;3.00;2.43;;;;;;;;;;5012978;28;20431;-51
2021/12/27 12:03:03;;;;;;;2.13;2.03;;;;;;;;;;5014447;28;20887;-49
2021/12/27 12:05:49;;;;;;;2.80;2.60;;;;;;;;;;5013504;28;20429;-49
2021/12/27 12:08:17;;;;;;;2.20;2.10;;;;;;;;;;5013359;28;20779;-49
2021/12/27 12:10:59;;;;;;;2.10;2.00;;;;;;;;;;5013293;28;20407;-49
2021/12/27 12:13:26;;;;;;;2.60;2.40;;;;;;;;;;5013423;28;20407;-49
2021/12/27 12:16:11;;;;;;;2.23;2.07;;;;;;;;;;5013258;28;20451;-49
2021/12/27 12:18:40;;;;;;;2.60;2.33;;;;;;;;;;5012908;28;20417;-49
2021/12/27 12:21:28;;;;;;;2.60;2.40;;;;;;;;;;5013146;28;20403;-49
2021/12/27 12:23:55;;;;;;;2.70;2.40;;;;;;;;;;5013105;28;20412;-51
2021/12/27 12:26:21;;;;;;;2.43;2.27;;;;;;;;;;5013200;28;20411;-49
2021/12/27 12:28:47;;;;;;;2.47;2.27;;;;;;;;;;5012701;28;20423;-50
2021/12/27 12:31:13;;;;;;;2.60;2.40;;;;;;;;;;5011780;28;20499;-49
2021/12/27 12:33:39;;;;;;;2.17;1.97;;;;;;;;;;5012889;28;20410;-50
2021/12/27 12:36:05;;;;;;;2.43;2.20;;;;;;;;;;5012961;28;20510;-51
2021/12/27 12:38:31;;;;;;;2.67;2.27;;;;;;;;;;5011972;28;20425;-51
2021/12/27 12:41:11;;;;;;;2.90;1.93;;;;;;;;;;5012738;28;20424;-50
2021/12/27 12:43:54;;;;;;;2.20;2.00;;;;;;;;;;5012745;28;20889;-51
2021/12/27 12:46:24;;;;;;;2.40;2.20;;;;;;;;;;5012785;28;20492;-50
2021/12/27 12:49:16;;;;;;;2.13;1.93;;;;;;;;;;5012275;28;20501;-50
2021/12/27 12:51:48;;;;;;;3.93;2.30;;;;;;;;;;5009896;28;20845;-49
2021/12/27 12:54:16;;;;;;;3.17;2.33;;;;;;;;;;5012345;28;20531;-49
2021/12/27 12:56:44;;;;;;;2.30;2.20;;;;;;;;;;5012222;28;20407;-52
2021/12/27 12:59:19;;;;;;;2.33;2.20;;;;;;;;;;5012545;28;20967;-49
2021/12/27 13:01:59;;;;;;;3.63;2.27;;;;;;;;;;5012474;28;20399;-50
2021/12/27 13:04:25;;;;;;;2.30;2.20;;;;;;;;;;5012451;28;20414;-49
2021/12/27 13:06:51;;;;;;;2.60;2.33;;;;;;;;;;5012044;28;20437;-51
2021/12/27 13:09:19;;;;;;;3.07;2.77;;;;;;;;;;5012444;28;20407;-50
2021/12/27 13:11:45;;;;;;;2.30;2.10;;;;;;;;;;5012347;28;20408;-49
2021/12/27 13:14:11;;;;;;;2.40;2.00;;;;;;;;;;5012234;28;21100;-50
2021/12/27 13:16:37;;;;;;;2.87;2.67;;;;;;;;;;5011942;28;20403;-49
2021/12/27 13:19:08;;;;;;;2.10;2.00;;;;;;;;;;5012262;28;20483;-50
2021/12/27 13:21:34;;;;;;;2.50;2.30;;;;;;;;;;5012173;28;20403;-49
2021/12/27 13:24:03;;;;;;;2.33;2.20;;;;;;;;;;5012234;28;20413;-50
2021/12/27 13:26:29;;;;;;;2.83;2.63;;;;;;;;;;5012015;28;20915;-51
2021/12/27 13:28:55;;;;;;;2.87;2.63;;;;;;;;;;5012087;28;20467;-49
2021/12/27 13:31:25;;;;;;;3.10;2.57;;;;;;;;;;5012028;28;20409;-49
2021/12/27 13:33:52;;;;;;;3.10;2.37;;;;;;;;;;5011850;28;20456;-48
2021/12/27 13:36:26;;;;;;;2.50;2.30;;;;;;;;;;5012190;28;20399;-50
2021/12/27 13:38:58;;;;;;;2.90;2.70;;;;;;;;;;5011715;28;20415;-50
2021/12/27 13:41:25;;;;;;;2.90;2.70;;;;;;;;;;5011918;28;20855;-49
2021/12/27 13:43:52;;;;;;;3.03;2.73;;;;;;;;;;5006347;28;21219;-49
2021/12/27 13:46:24;;;;;;;3.50;2.50;;;;;;;;;;5006256;28;20411;-49
2021/12/27 13:48:51;;;;;;;2.90;2.20;;;;;;;;;;5010601;28;20769;-50
2021/12/27 13:51:19;;;;;;;2.33;2.13;;;;;;;;;;5015906;28;20403;-51
2021/12/27 13:54:02;;;;;;;3.00;2.73;;;;;;;;;;5015910;28;20793;-49
2021/12/27 13:56:30;;;;;;;3.03;2.70;;;;;;;;;;5015659;28;20430;-49
2021/12/27 13:58:56;;;;;;;2.67;2.47;;;;;;;;;;5015729;28;20410;-51
2021/12/27 14:01:23;;;;;;;3.13;2.93;;;;;;;;;;5015835;28;20431;-50
2021/12/27 14:03:50;;;;;;;2.83;2.63;;;;;;;;;;5015821;28;20886;-49
2021/12/27 14:06:17;;;;;;;2.70;2.50;;;;;;;;;;5015567;28;20409;-51
2021/12/27 14:08:54;;;;;;;3.13;2.83;;;;;;;;;;5015416;28;20423;-49
2021/12/27 14:11:21;;;;;;;2.80;2.60;;;;;;;;;;5015344;28;20410;-50
2021/12/27 14:13:47;;;;;;;7.23;2.70;;;;;;;;;;5014464;28;20418;-49
2021/12/27 14:16:17;;;;;;;3.30;2.60;;;;;;;;;;5015126;28;20395;-51
2021/12/27 14:18:59;;;;;;;2.90;2.70;;;;;;;;;;5015043;28;20531;-49
2021/12/27 14:21:25;;;;;;;3.13;2.83;;;;;;;;;;5015539;28;20397;-50
2021/12/27 14:24:08;;;;;;;2.80;2.60;;;;;;;;;;5015248;28;20409;-49
2021/12/27 14:26:35;;;;;;;2.97;2.70;;;;;;;;;;5014969;28;20407;-49
2021/12/27 14:29:14;;;;;;;5.50;3.70;;;;;;;;;;5015172;28;20406;-49
2021/12/27 14:31:40;;;;;;;2.50;2.30;;;;;;;;;;5015302;28;20397;-50
2021/12/27 14:34:06;;;;;;;7.80;2.60;;;;;;;;;;5014938;28;20519;-51
2021/12/27 14:36:32;;;;;;;2.90;2.70;;;;;;;;;;5014668;28;20406;-49
2021/12/27 14:38:58;;;;;;;3.73;2.80;;;;;;;;;;5014994;28;20878;-50
2021/12/27 14:41:24;;;;;;;3.70;2.97;;;;;;;;;;5014990;28;20852;-49
2021/12/27 14:43:50;;;;;;;3.57;3.00;;;;;;;;;;5015020;28;20421;-49
2021/12/27 14:46:16;;;;;;;3.23;2.93;;;;;;;;;;5013307;28;20417;-49
2021/12/27 14:48:42;;;;;;;3.77;3.30;;;;;;;;;;5014558;28;20418;-49
2021/12/27 14:51:09;;;;;;;3.67;3.37;;;;;;;;;;5014819;28;20934;-49
2021/12/27 14:53:35;;;;;;;3.10;2.90;;;;;;;;;;5014307;28;20410;-49